Terminal Aerodrome Forecast
Issued by NWS Pocatello, ID

Home | Current Version | Previous Version | Text Only | Print | Product List | Glossary On
Versions: 1 2 3 4 5 6 7 8 9 10 11 12 13 14 15 16
000
FTUS45 KPIH 010800 AAA
TAFBYI
TAF AMD
KBYI 010810Z 0108/0206 22012KT P6SM FEW100
     FM011000 25012KT P6SM VCSH BKN040 BKN080
     FM011500 28013G20KT P6SM SCT060 SCT250=

USA.gov is the U.S. government's official web portal to all federal, state and local government web resources and services.